AirNav   Bose ProFlight Series 2 Headset
 
 960 users online  

27AZ Eagle Roost Airpark
Aguila, Arizona, USA

GOING TO AGUILA?


FAA INFORMATION EFFECTIVE 30 JANUARY 2020

Location

FAA Identifier: 27AZ
Lat/Long: 33-55-09.6600N 113-10-04.1400W
33-55.161000N 113-10.069000W
33.9193500,-113.1678167
(estimated)
Elevation: 2206 ft. / 672 m (estimated)
Variation: 13E (1985)
From city: 2 miles S of AGUILA, AZ
Time zone: UTC -7 (year round; does not observe DST)
Zip code: 85320

Airport Operations

Airport use: Private use. Permission required prior to landing
Control tower: no
ARTCC: ALBUQUERQUE CENTER
FSS: PRESCOTT FLIGHT SERVICE STATION
Attendance: UNATNDD
Wind indicator: lighted
Segmented circle: yes
Lights: FOR RWY LGTS KEY 122.9 5 TIMES; REMAINS ON 15 MINUTES.

Airport Communications

WX AWOS-3 at E25 (19 nm E): 121.375 (928-684-2487)
  • MULTICOM 122.9

Nearby radio navigation aids

VOR radial/distance  VOR name  Freq  Var
BXKr314/32.8BUCKEYE VORTAC110.6014E

Airport Services

Airframe service: NONE
Powerplant service: NONE

Runway Information

Runway 17/35

Dimensions: 3906 x 40 ft. / 1191 x 12 m
Surface: asphalt
Runway edge lights: low intensity
RUNWAY 17  RUNWAY 35
Latitude: 33-55.483000N33-54.839000N
Longitude: 113-10.070000W113-10.068000W
Elevation: 2180.0 ft.2200.0 ft.
Traffic pattern: leftleft
Displaced threshold: 242 ft.200 ft.

Airport Ownership and Management from official FAA records

Ownership: Privately-owned
Owner: EAGLE ROOST MGMT INC.
PO BOX 787
AGUILA, AZ 85320
Phone (928) 685-2375
Manager: HARLAN WEISSENBORN
PO BOX 248
AGUILA, AZ 85320
Phone (928) 685-2539

Airport Operational Statistics

Aircraft based on the field: 62
Single engine airplanes: 55
Multi engine airplanes: 2
Helicopters: 1
Gliders airplanes: 2
Ultralights: 2
    

Additional Remarks

FOR CD CTC ALBUQUERQUE ARTCC AT 505-856-4861.

Instrument Procedures

There are no published instrument procedures at 27AZ.

Some nearby airports with instrument procedures:

KLUF - Luke Air Force Base (45 nm SE)
KGEU - Glendale Municipal Airport (50 nm SE)
KGYR - Phoenix Goodyear Airport (50 nm SE)
KDVT - Phoenix Deer Valley Airport (56 nm E)
P20 - Avi Suquilla Airport (56 nm W)
 
Loc | Ops | Rwys | IFR | FBO | Links
Com | Nav | Svcs | Stats | Notes
Area around 27AZ (Eagle Roost Airpark)
 
Road maps at: MapQuest Bing Google
 
Aerial photo
WARNING: Photo may not be current or correct
Aerial photo of 27AZ (Eagle Roost Airpark)
Photo taken 31-Aug-2007

Do you have a better or more recent aerial photo of Eagle Roost Airpark that you would like to share? If so, please send us your photo.

 
Sectional chart

 
Airport distance calculator
Flying to Eagle Roost Airpark? Find the distance to fly.

From to 27AZ

Sunrise and sunset
Times for 18-Feb-2020
 Local
(UTC-7)
 Zulu
(UTC)
Morning civil twilight06:5013:50
Sunrise07:1514:15
Sunset18:1801:18
Evening civil twilight18:4401:44

Current date and time
Zulu (UTC)  19-Feb-2020 01:51:38
Local (UTC-7)  18-Feb-2020 18:51:38
 
METAR
KBXK 
38nm SE 
190135Z AUTO 28003KT 10SM CLR 20/06 A2993 RMK A01
KLUF 
47nm SE 
190058Z AUTO 24006KT 10SM CLR 23/03 A2990 RMK AO2 SLP121 T02300030 $
KGEU 
49nm SE 
190050Z 00000KT 10SM SCT160 23/00 A2993
TAF
KLUF 
47nm SE 
182015Z 1820/2002 VRB06KT 9999 SCT250 QNH2992INS BECMG 1822/1823 VRB06KT 9999 BKN250 QNH2991INS BECMG 1900/1901 VRB06KT 9999 SCT210 QNH2989INS TX23/1823Z TN08/1914Z
NOTAMs
Click for the latest NOTAMs
NOTAMs are issued by the DoD/FAA and will open in a separate window not controlled by AirNav.

 

 
 

Would you like to see your business listed on this page?

 If your business provides an interesting product or service to pilots, flight crews, aircraft, or users of the Eagle Roost Airpark, you should consider listing it here.  To start the listing process, click on the button below
 
Add a business
 

Other Pages about Eagle Roost Airpark

www.eagleroost.com
www.eagleroost.org
 
Update a link
 
Copyright © AirNav, LLC. All rights reserved. Privacy Policy  Contact